createdAt,value
2017-09-02T00:00:13.798Z,1013.37
2017-09-02T00:01:13.777Z,1013.39
2017-09-02T00:02:13.763Z,1013.4
2017-09-02T00:03:13.738Z,1013.39
2017-09-02T00:04:13.739Z,1013.4
2017-09-02T00:05:13.708Z,1013.39
2017-09-02T00:06:13.687Z,1013.38
2017-09-02T00:07:13.667Z,1013.4
2017-09-02T00:08:13.651Z,1013.39
2017-09-02T00:09:13.637Z,1013.39
2017-09-02T00:10:13.616Z,1013.39
2017-09-02T00:11:13.610Z,1013.39
2017-09-02T00:12:13.591Z,1013.36
2017-09-02T00:13:13.569Z,1013.35
2017-09-02T00:14:13.548Z,1013.33
2017-09-02T00:15:13.528Z,1013.31
2017-09-02T00:16:13.515Z,1013.35
2017-09-02T00:17:13.497Z,1013.33
2017-09-02T00:18:13.485Z,1013.34
2017-09-02T00:19:13.465Z,1013.34
2017-09-02T00:20:13.450Z,1013.33
2017-09-02T00:21:13.431Z,1013.33
2017-09-02T00:22:13.418Z,1013.36
2017-09-02T00:23:13.397Z,1013.37
2017-09-02T00:24:13.380Z,1013.39
2017-09-02T00:25:13.359Z,1013.36
2017-09-02T00:26:13.342Z,1013.37
2017-09-02T00:27:13.329Z,1013.38
2017-09-02T00:28:13.308Z,1013.36
2017-09-02T00:29:13.298Z,1013.39
2017-09-02T00:30:13.274Z,1013.38
2017-09-02T00:31:13.261Z,1013.39
2017-09-02T00:32:13.239Z,1013.39
2017-09-02T00:33:13.224Z,1013.39
2017-09-02T00:34:13.204Z,1013.41
2017-09-02T00:35:13.190Z,1013.43
2017-09-02T00:36:13.169Z,1013.41
2017-09-02T00:37:13.154Z,1013.41
2017-09-02T00:38:13.139Z,1013.44
2017-09-02T00:39:13.118Z,1013.42
2017-09-02T00:40:13.106Z,1013.46
2017-09-02T00:41:13.097Z,1013.46
2017-09-02T00:42:13.067Z,1013.44
2017-09-02T00:43:13.055Z,1013.42
2017-09-02T00:44:13.038Z,1013.41
2017-09-02T00:45:13.020Z,1013.42
2017-09-02T00:46:13.009Z,1013.45
2017-09-02T00:47:12.980Z,1013.43
2017-09-02T00:48:12.963Z,1013.43
2017-09-02T00:49:12.947Z,1013.41
2017-09-02T00:50:12.938Z,1013.39
2017-09-02T00:51:12.920Z,1013.4
2017-09-02T00:52:12.895Z,1013.41
2017-09-02T00:53:12.877Z,1013.37
2017-09-02T00:54:12.867Z,1013.37
2017-09-02T00:55:12.847Z,1013.37
2017-09-02T00:56:12.828Z,1013.35
2017-09-02T00:57:12.820Z,1013.39
2017-09-02T00:58:12.798Z,1013.37
2017-09-02T00:59:12.778Z,1013.38
2017-09-02T01:00:12.757Z,1013.36
2017-09-02T01:01:12.754Z,1013.34
2017-09-02T01:02:12.732Z,1013.34
2017-09-02T01:03:12.718Z,1013.32
2017-09-02T01:04:12.689Z,1013.32
2017-09-02T01:05:12.674Z,1013.35
2017-09-02T01:06:12.654Z,1013.35
2017-09-02T01:07:12.698Z,1013.37
2017-09-02T01:08:12.627Z,1013.37
2017-09-02T01:09:12.760Z,1013.33
2017-09-02T01:10:12.599Z,1013.32
2017-09-02T01:11:12.626Z,1013.32
2017-09-02T01:12:12.556Z,1013.34
2017-09-02T01:13:12.541Z,1013.35
2017-09-02T01:14:12.518Z,1013.32
2017-09-02T01:15:12.604Z,1013.32
2017-09-02T01:16:12.486Z,1013.31
2017-09-02T01:17:12.467Z,1013.29
2017-09-02T01:18:12.456Z,1013.3
2017-09-02T01:19:12.537Z,1013.32
2017-09-02T01:20:12.415Z,1013.32
2017-09-02T01:21:12.410Z,1013.32
2017-09-02T01:22:12.387Z,1013.32
2017-09-02T01:23:12.370Z,1013.33
2017-09-02T01:24:12.348Z,1013.29
2017-09-02T01:25:12.439Z,1013.32
2017-09-02T01:26:12.318Z,1013.29
2017-09-02T01:27:12.348Z,1013.31
2017-09-02T01:28:12.282Z,1013.34
2017-09-02T01:29:12.362Z,1013.33
2017-09-02T01:30:12.262Z,1013.34
2017-09-02T01:31:12.277Z,1013.37
2017-09-02T01:32:12.218Z,1013.33
2017-09-02T01:33:12.242Z,1013.34
2017-09-02T01:34:12.178Z,1013.37
2017-09-02T01:35:12.217Z,1013.35
2017-09-02T01:36:12.149Z,1013.36
2017-09-02T01:37:12.178Z,1013.36
2017-09-02T01:38:12.116Z,1013.38
2017-09-02T01:39:12.241Z,1013.37
2017-09-02T01:40:12.080Z,1013.36
2017-09-02T01:41:12.070Z,1013.37
2017-09-02T01:42:12.043Z,1013.4
2017-09-02T01:43:12.029Z,1013.38
2017-09-02T01:44:12.011Z,1013.36
2017-09-02T01:45:12.000Z,1013.33
2017-09-02T01:46:11.982Z,1013.38
2017-09-02T01:47:11.956Z,1013.34
2017-09-02T01:48:11.939Z,1013.34
2017-09-02T01:49:11.923Z,1013.34
2017-09-02T01:50:11.909Z,1013.36
2017-09-02T01:51:11.886Z,1013.32
2017-09-02T01:52:11.881Z,1013.35
2017-09-02T01:53:11.860Z,1013.34
2017-09-02T01:54:11.840Z,1013.31
2017-09-02T01:55:11.818Z,1013.33
2017-09-02T01:56:11.799Z,1013.32
2017-09-02T01:57:11.782Z,1013.3
2017-09-02T01:58:11.766Z,1013.28
2017-09-02T01:59:11.745Z,1013.31
2017-09-02T02:00:11.729Z,1013.33
2017-09-02T02:01:11.725Z,1013.3
2017-09-02T02:02:11.698Z,1013.33
2017-09-02T02:03:11.680Z,1013.3
2017-09-02T02:04:11.668Z,1013.34
2017-09-02T02:05:11.648Z,1013.31
2017-09-02T02:06:11.631Z,1013.31
2017-09-02T02:07:11.612Z,1013.29
2017-09-02T02:08:11.599Z,1013.35
2017-09-02T02:09:11.575Z,1013.34
2017-09-02T02:10:11.558Z,1013.3
2017-09-02T02:11:11.544Z,1013.33
2017-09-02T02:12:11.528Z,1013.29
2017-09-02T02:13:11.507Z,1013.28
2017-09-02T02:14:11.499Z,1013.29
2017-09-02T02:15:11.478Z,1013.26
2017-09-02T02:16:11.454Z,1013.28
2017-09-02T02:17:11.438Z,1013.26
2017-09-02T02:18:11.428Z,1013.28
2017-09-02T02:19:11.404Z,1013.26
2017-09-02T02:20:11.387Z,1013.3
2017-09-02T02:21:11.369Z,1013.29
2017-09-02T02:22:11.349Z,1013.29
2017-09-02T02:23:11.333Z,1013.31
2017-09-02T02:24:11.321Z,1013.29
2017-09-02T02:25:11.308Z,1013.33
2017-09-02T02:26:11.288Z,1013.31
2017-09-02T02:27:11.295Z,1013.29
2017-09-02T02:28:11.252Z,1013.32
2017-09-02T02:29:11.233Z,1013.31
2017-09-02T02:30:11.214Z,1013.27
2017-09-02T02:31:11.199Z,1013.27
2017-09-02T02:32:11.178Z,1013.27
2017-09-02T02:33:11.164Z,1013.25
2017-09-02T02:34:11.147Z,1013.25
2017-09-02T02:35:11.133Z,1013.24
2017-09-02T02:36:11.121Z,1013.26
2017-09-02T02:37:11.116Z,1013.24
2017-09-02T02:38:11.078Z,1013.23
2017-09-02T02:39:11.058Z,1013.2
2017-09-02T02:40:11.040Z,1013.24
2017-09-02T02:41:11.028Z,1013.21
2017-09-02T02:42:11.012Z,1013.23
2017-09-02T02:43:10.991Z,1013.18
2017-09-02T02:44:10.975Z,1013.19
2017-09-02T02:45:10.955Z,1013.22
2017-09-02T02:46:10.939Z,1013.23
2017-09-02T02:47:10.926Z,1013.22
2017-09-02T02:48:10.908Z,1013.25
2017-09-02T02:49:10.887Z,1013.23
2017-09-02T02:50:10.867Z,1013.19
2017-09-02T02:51:10.853Z,1013.19
2017-09-02T02:52:10.838Z,1013.21
2017-09-02T02:53:10.830Z,1013.18
2017-09-02T02:54:10.809Z,1013.19
2017-09-02T02:55:10.781Z,1013.17
2017-09-02T02:56:10.770Z,1013.18
2017-09-02T02:57:10.750Z,1013.15
2017-09-02T02:58:10.734Z,1013.16
2017-09-02T02:59:10.718Z,1013.15
2017-09-02T03:00:10.696Z,1013.14
2017-09-02T03:01:10.678Z,1013.16
2017-09-02T03:02:10.660Z,1013.11
2017-09-02T03:03:10.646Z,1013.11
2017-09-02T03:04:10.628Z,1013.1
2017-09-02T03:05:10.612Z,1013.11
2017-09-02T03:06:10.598Z,1013.13
2017-09-02T03:07:10.579Z,1013.04
2017-09-02T03:08:10.561Z,1013.03
2017-09-02T03:09:10.544Z,1013.07
2017-09-02T03:10:10.531Z,1013.11
2017-09-02T03:11:10.505Z,1013.08
2017-09-02T03:12:10.488Z,1013.11
2017-09-02T03:13:10.474Z,1013.12
2017-09-02T03:14:10.459Z,1013.09
2017-09-02T03:15:10.438Z,1013.12
2017-09-02T03:16:10.420Z,1013.14
2017-09-02T03:17:10.416Z,1013.14
2017-09-02T03:18:10.390Z,1013.11
2017-09-02T03:19:10.369Z,1013.1
2017-09-02T03:20:10.356Z,1013.11
2017-09-02T03:21:10.333Z,1013.11
2017-09-02T03:22:10.321Z,1013.1
2017-09-02T03:23:10.309Z,1013.11
2017-09-02T03:24:10.298Z,1013.06
2017-09-02T03:25:10.269Z,1013.1
2017-09-02T03:26:10.247Z,1013.09
2017-09-02T03:27:10.235Z,1013.07
2017-09-02T03:28:10.217Z,1013.06
2017-09-02T03:29:10.203Z,1013.06
2017-09-02T03:30:10.177Z,1013.1
2017-09-02T03:31:10.160Z,1013.07
2017-09-02T03:32:10.148Z,1013.08
2017-09-02T03:33:10.128Z,1013.12
2017-09-02T03:34:10.111Z,1013.1
2017-09-02T03:35:10.101Z,1013.1
2017-09-02T03:36:10.078Z,1013.09
2017-09-02T03:37:10.058Z,1013.06
2017-09-02T03:38:10.045Z,1013.08
2017-09-02T03:39:10.027Z,1013.09
2017-09-02T03:40:10.005Z,1013.05
2017-09-02T03:41:09.987Z,1013.08
2017-09-02T03:42:09.973Z,1013.06
2017-09-02T03:43:09.956Z,1013.07
2017-09-02T03:44:09.940Z,1013.06
2017-09-02T03:45:09.919Z,1013.03
2017-09-02T03:46:09.901Z,1013.05
2017-09-02T03:47:09.882Z,1013.08
2017-09-02T03:48:09.868Z,1013.08
2017-09-02T03:49:09.857Z,1013.07
2017-09-02T03:50:09.831Z,1013.02
2017-09-02T03:51:09.818Z,1013.05
2017-09-02T03:52:09.807Z,1013.06
2017-09-02T03:53:09.784Z,1013.05
2017-09-02T03:54:09.769Z,1013.01
2017-09-02T03:55:09.749Z,1013.01
2017-09-02T03:56:09.730Z,1013.03
2017-09-02T03:57:09.715Z,1012.99
2017-09-02T03:58:09.695Z,1013.02
2017-09-02T03:59:09.679Z,1013.03
2017-09-02T04:00:09.667Z,1013.01
2017-09-02T04:01:09.642Z,1013.02
2017-09-02T04:02:09.627Z,1012.99
2017-09-02T04:03:09.609Z,1013
2017-09-02T04:04:09.597Z,1013.03
2017-09-02T04:05:09.579Z,1013
2017-09-02T04:06:09.560Z,1013.01
2017-09-02T04:07:09.540Z,1013
2017-09-02T04:08:09.520Z,1013.01
2017-09-02T04:09:09.502Z,1013.03
2017-09-02T04:10:09.485Z,1013.03
2017-09-02T04:11:09.472Z,1012.98
2017-09-02T04:12:09.459Z,1012.98
2017-09-02T04:13:09.435Z,1013
2017-09-02T04:14:09.418Z,1013
2017-09-02T04:15:09.399Z,1013
2017-09-02T04:16:09.384Z,1012.99
2017-09-02T04:17:09.371Z,1012.98
2017-09-02T04:18:09.349Z,1012.96
2017-09-02T04:19:09.330Z,1013.01
2017-09-02T04:20:09.318Z,1012.97
2017-09-02T04:21:09.299Z,1012.97
2017-09-02T04:22:09.278Z,1013.01
2017-09-02T04:23:09.258Z,1012.98
2017-09-02T04:24:09.242Z,1013
2017-09-02T04:25:09.226Z,1013.03
2017-09-02T04:26:09.208Z,1013
2017-09-02T04:27:09.191Z,1012.97
2017-09-02T04:28:09.177Z,1013
2017-09-02T04:29:09.158Z,1013.05
2017-09-02T04:30:09.138Z,1013.06
2017-09-02T04:31:09.118Z,1013.05
2017-09-02T04:32:09.101Z,1013.09
2017-09-02T04:33:09.085Z,1013.11
2017-09-02T04:34:09.069Z,1013.12
2017-09-02T04:35:09.049Z,1013.09
2017-09-02T04:36:09.032Z,1013.09
2017-09-02T04:37:09.018Z,1013.08
2017-09-02T04:38:08.998Z,1013.12
2017-09-02T04:39:08.978Z,1013.09
2017-09-02T04:40:08.968Z,1013.11
2017-09-02T04:41:08.948Z,1013.11
2017-09-02T04:42:08.928Z,1013.12
2017-09-02T04:43:08.910Z,1013.1
2017-09-02T04:44:08.898Z,1013.12
2017-09-02T04:45:08.874Z,1013.12
2017-09-02T04:46:08.988Z,1013.13
2017-09-02T04:47:08.840Z,1013.16
2017-09-02T04:48:08.826Z,1013.19
2017-09-02T04:49:08.804Z,1013.18
2017-09-02T04:50:08.787Z,1013.18
2017-09-02T04:51:08.767Z,1013.22
2017-09-02T04:52:08.761Z,1013.18
2017-09-02T04:53:08.740Z,1013.2
2017-09-02T04:54:08.716Z,1013.14
2017-09-02T04:55:08.700Z,1013.16
2017-09-02T04:56:08.687Z,1013.2
2017-09-02T04:57:08.668Z,1013.13
2017-09-02T04:58:08.647Z,1013.19
2017-09-02T04:59:08.628Z,1013.17
2017-09-02T05:00:08.615Z,1013.2
2017-09-02T05:01:08.590Z,1013.2
2017-09-02T05:02:08.579Z,1013.18
2017-09-02T05:03:08.558Z,1013.2
2017-09-02T05:04:08.548Z,1013.2
2017-09-02T05:05:08.529Z,1013.23
2017-09-02T05:06:08.550Z,1013.28
2017-09-02T05:07:08.490Z,1013.24
2017-09-02T05:08:08.475Z,1013.24
2017-09-02T05:09:08.450Z,1013.26
2017-09-02T05:10:08.434Z,1013.28
2017-09-02T05:11:08.415Z,1013.26
2017-09-02T05:12:08.408Z,1013.25
2017-09-02T05:13:08.376Z,1013.27
2017-09-02T05:14:08.365Z,1013.24
2017-09-02T05:15:08.348Z,1013.29
2017-09-02T05:16:08.427Z,1013.3
2017-09-02T05:17:08.310Z,1013.3
2017-09-02T05:18:08.333Z,1013.35
2017-09-02T05:19:08.275Z,1013.31
2017-09-02T05:20:08.260Z,1013.3
2017-09-02T05:21:08.239Z,1013.29
2017-09-02T05:22:08.220Z,1013.33
2017-09-02T05:23:08.204Z,1013.27
2017-09-02T05:24:08.188Z,1013.31
2017-09-02T05:25:08.167Z,1013.27
2017-09-02T05:26:08.148Z,1013.28
2017-09-02T05:27:08.137Z,1013.31
2017-09-02T05:28:08.117Z,1013.29
2017-09-02T05:29:08.101Z,1013.27
2017-09-02T05:30:08.079Z,1013.26
2017-09-02T05:31:08.060Z,1013.26
2017-09-02T05:32:08.048Z,1013.28
2017-09-02T05:33:08.046Z,1013.31
2017-09-02T05:34:08.008Z,1013.28
2017-09-02T05:35:07.988Z,1013.3
2017-09-02T05:36:07.975Z,1013.32
2017-09-02T05:37:07.955Z,1013.3
2017-09-02T05:38:07.940Z,1013.31
2017-09-02T05:39:07.924Z,1013.31
2017-09-02T05:40:07.900Z,1013.33
2017-09-02T05:41:07.887Z,1013.32
2017-09-02T05:42:07.867Z,1013.32
2017-09-02T05:43:07.850Z,1013.32
2017-09-02T05:44:07.839Z,1013.35
2017-09-02T05:45:07.817Z,1013.37
2017-09-02T05:46:07.796Z,1013.37
2017-09-02T05:47:07.778Z,1013.39
2017-09-02T05:48:07.762Z,1013.37
2017-09-02T05:49:07.752Z,1013.4
2017-09-02T05:50:07.728Z,1013.41
2017-09-02T05:51:07.707Z,1013.36
2017-09-02T05:52:07.698Z,1013.36
2017-09-02T05:53:07.681Z,1013.36
2017-09-02T05:54:07.661Z,1013.38
2017-09-02T05:55:07.640Z,1013.38
2017-09-02T05:56:07.618Z,1013.36
2017-09-02T05:57:07.606Z,1013.35
2017-09-02T05:58:07.584Z,1013.35
2017-09-02T05:59:07.569Z,1013.4
2017-09-02T06:00:07.547Z,1013.38
2017-09-02T06:01:07.530Z,1013.36
2017-09-02T06:02:07.513Z,1013.36
2017-09-02T06:03:07.510Z,1013.37
2017-09-02T06:04:07.477Z,1013.37
2017-09-02T06:05:07.467Z,1013.41
2017-09-02T06:06:07.456Z,1013.38
2017-09-02T06:07:07.428Z,1013.4
2017-09-02T06:08:07.417Z,1013.41
2017-09-02T06:09:07.397Z,1013.4
2017-09-02T06:10:07.378Z,1013.39
2017-09-02T06:11:07.357Z,1013.4
2017-09-02T06:12:07.341Z,1013.4
2017-09-02T06:13:07.324Z,1013.41
2017-09-02T06:14:07.306Z,1013.37
2017-09-02T06:15:07.289Z,1013.4
2017-09-02T06:16:07.270Z,1013.39
2017-09-02T06:17:07.257Z,1013.43
2017-09-02T06:18:07.239Z,1013.39
2017-09-02T06:19:07.219Z,1013.41
2017-09-02T06:20:07.209Z,1013.41
2017-09-02T06:21:07.187Z,1013.44
2017-09-02T06:22:07.168Z,1013.42
2017-09-02T06:23:07.151Z,1013.44
2017-09-02T06:24:07.137Z,1013.44
2017-09-02T06:25:07.121Z,1013.39
2017-09-02T06:26:07.103Z,1013.42
2017-09-02T06:27:07.092Z,1013.44
2017-09-02T06:28:07.082Z,1013.46
2017-09-02T06:29:07.049Z,1013.4
2017-09-02T06:30:07.043Z,1013.4
2017-09-02T06:31:07.017Z,1013.42
2017-09-02T06:32:06.995Z,1013.42
2017-09-02T06:33:06.980Z,1013.4
2017-09-02T06:34:06.963Z,1013.4
2017-09-02T06:35:06.946Z,1013.41
2017-09-02T06:36:06.931Z,1013.42
2017-09-02T06:37:06.919Z,1013.41
2017-09-02T06:38:06.898Z,1013.42
2017-09-02T06:39:06.882Z,1013.43
2017-09-02T06:40:06.868Z,1013.4
2017-09-02T06:41:06.851Z,1013.44
2017-09-02T06:42:06.832Z,1013.43
2017-09-02T06:43:06.811Z,1013.44
2017-09-02T06:44:06.798Z,1013.45
2017-09-02T06:45:06.787Z,1013.47
2017-09-02T06:46:06.767Z,1013.4
2017-09-02T06:47:06.749Z,1013.45
2017-09-02T06:48:06.738Z,1013.42
2017-09-02T06:49:06.718Z,1013.46
2017-09-02T06:50:06.699Z,1013.42
2017-09-02T06:51:06.681Z,1013.43
2017-09-02T06:52:06.670Z,1013.46
2017-09-02T06:53:06.680Z,1013.49
2017-09-02T06:54:06.640Z,1013.53
2017-09-02T06:55:06.620Z,1013.56
2017-09-02T06:56:06.601Z,1013.53
2017-09-02T06:57:06.586Z,1013.51
2017-09-02T06:58:06.577Z,1013.5
2017-09-02T06:59:06.559Z,1013.53
2017-09-02T07:00:06.547Z,1013.53
2017-09-02T07:01:06.536Z,1013.53
2017-09-02T07:02:06.517Z,1013.58
2017-09-02T07:03:06.508Z,1013.58
2017-09-02T07:04:06.500Z,1013.61
2017-09-02T07:05:06.483Z,1013.59
2017-09-02T07:06:06.470Z,1013.58
2017-09-02T07:07:06.459Z,1013.61
2017-09-02T07:08:06.447Z,1013.63
2017-09-02T07:09:06.437Z,1013.66
2017-09-02T07:10:06.423Z,1013.66
2017-09-02T07:11:06.413Z,1013.66
2017-09-02T07:12:06.407Z,1013.69
2017-09-02T07:13:06.397Z,1013.72
2017-09-02T07:14:06.388Z,1013.74
2017-09-02T07:15:06.371Z,1013.74
2017-09-02T07:16:06.360Z,1013.73
2017-09-02T07:17:06.348Z,1013.73
2017-09-02T07:18:06.338Z,1013.77
2017-09-02T07:19:06.325Z,1013.82
2017-09-02T07:20:06.321Z,1013.8
2017-09-02T07:21:06.321Z,1013.88
2017-09-02T07:22:06.301Z,1013.9
2017-09-02T07:23:06.291Z,1013.98
2017-09-02T07:24:06.277Z,1014.25
2017-09-02T07:25:06.268Z,1014.36
2017-09-02T07:26:06.258Z,1014.29
2017-09-02T07:27:06.248Z,1014.19
2017-09-02T07:28:06.237Z,1014.06
2017-09-02T07:29:06.233Z,1013.98
2017-09-02T07:30:06.225Z,1014
2017-09-02T07:31:06.220Z,1013.96
2017-09-02T07:32:06.208Z,1013.97
2017-09-02T07:33:06.199Z,1013.95
2017-09-02T07:34:06.194Z,1013.95
2017-09-02T07:35:06.179Z,1013.96
2017-09-02T07:36:06.178Z,1013.89
2017-09-02T07:37:06.165Z,1013.87
2017-09-02T07:38:06.157Z,1013.91
2017-09-02T07:39:06.148Z,1013.86
2017-09-02T07:40:06.148Z,1013.89
2017-09-02T07:41:06.136Z,1013.85
2017-09-02T07:42:06.131Z,1013.88
2017-09-02T07:43:06.128Z,1013.87
2017-09-02T07:44:06.117Z,1013.91
2017-09-02T07:45:06.108Z,1013.9
2017-09-02T07:46:06.105Z,1013.92
2017-09-02T07:47:06.097Z,1013.95
2017-09-02T07:48:06.101Z,1013.99
2017-09-02T07:49:06.089Z,1013.98
2017-09-02T07:50:06.088Z,1014.02
2017-09-02T07:51:06.081Z,1014.05
2017-09-02T07:52:06.069Z,1014.07
2017-09-02T07:53:06.070Z,1014.07
2017-09-02T07:54:06.070Z,1014.11
2017-09-02T07:55:06.058Z,1014.1
2017-09-02T07:56:06.061Z,1014.12
2017-09-02T07:57:06.049Z,1014.15
2017-09-02T07:58:06.044Z,1014.11
2017-09-02T07:59:06.047Z,1014.12
2017-09-02T08:00:06.039Z,1014.14
2017-09-02T08:01:06.039Z,1014.18
2017-09-02T08:02:06.028Z,1014.17
2017-09-02T08:03:06.027Z,1014.12
2017-09-02T08:04:06.028Z,1014.16
2017-09-02T08:05:06.018Z,1014.15
2017-09-02T08:06:06.014Z,1014.16
2017-09-02T08:07:06.010Z,1014.19
2017-09-02T08:08:06.011Z,1014.14
2017-09-02T08:09:06.005Z,1014.13
2017-09-02T08:10:06.011Z,1014.1
2017-09-02T08:11:06.002Z,1014.13
2017-09-02T08:12:05.998Z,1014.14
2017-09-02T08:13:05.996Z,1014.1
2017-09-02T08:14:05.989Z,1014.12
2017-09-02T08:15:05.989Z,1014.15
2017-09-02T08:16:05.987Z,1014.17
2017-09-02T08:17:05.981Z,1014.14
2017-09-02T08:18:05.987Z,1014.13
2017-09-02T08:19:05.980Z,1014.1
2017-09-02T08:20:05.972Z,1014.11
2017-09-02T08:21:05.977Z,1014.11
2017-09-02T08:22:05.967Z,1014.14
2017-09-02T08:23:05.968Z,1014.08
2017-09-02T08:24:05.966Z,1014.09
2017-09-02T08:25:05.963Z,1014.07
2017-09-02T08:26:05.962Z,1014.09
2017-09-02T08:27:05.959Z,1014.05
2017-09-02T08:28:05.956Z,1014.07
2017-09-02T08:29:05.951Z,1014.09
2017-09-02T08:30:05.949Z,1014.1
2017-09-02T08:31:05.947Z,1014.1
2017-09-02T08:32:05.947Z,1014.12
2017-09-02T08:33:05.942Z,1014.11
2017-09-02T08:34:05.949Z,1014.11
2017-09-02T08:35:05.943Z,1014.12
2017-09-02T08:36:05.938Z,1014.11
2017-09-02T08:37:05.938Z,1014.13
2017-09-02T08:38:05.938Z,1014.13
2017-09-02T08:39:05.930Z,1014.12
2017-09-02T08:40:05.929Z,1014.17
2017-09-02T08:41:05.933Z,1014.17
2017-09-02T08:42:05.929Z,1014.16
2017-09-02T08:43:05.925Z,1014.17
2017-09-02T08:44:05.925Z,1014.18
2017-09-02T08:45:05.925Z,1014.19
2017-09-02T08:46:05.925Z,1014.2
2017-09-02T08:47:05.927Z,1014.17
2017-09-02T08:48:05.924Z,1014.19
2017-09-02T08:49:05.925Z,1014.1
2017-09-02T08:50:05.918Z,1014.12
2017-09-02T08:51:05.918Z,1014.17
2017-09-02T08:52:05.918Z,1014.17
2017-09-02T08:53:05.916Z,1014.2
2017-09-02T08:54:05.918Z,1014.18
2017-09-02T08:55:05.917Z,1014.26
2017-09-02T08:56:05.918Z,1014.11
2017-09-02T08:57:05.914Z,1014.07
2017-09-02T08:58:05.919Z,1014.22
2017-09-02T08:59:05.911Z,1014.2
2017-09-02T09:00:05.919Z,1014.19
2017-09-02T09:01:05.909Z,1014.22
2017-09-02T09:02:05.908Z,1014.16
2017-09-02T09:03:05.906Z,1014.23
2017-09-02T09:04:05.904Z,1014.13
2017-09-02T09:05:05.905Z,1014.1
2017-09-02T09:06:05.907Z,1014.09
2017-09-02T09:07:05.910Z,1014.22
2017-09-02T09:08:05.907Z,1014.22
2017-09-02T09:09:05.900Z,1014.16
2017-09-02T09:10:05.897Z,1014.17
2017-09-02T09:11:05.900Z,1014.12
2017-09-02T09:12:05.889Z,1014.1
2017-09-02T09:13:05.888Z,1014.13
2017-09-02T09:14:05.881Z,1014.16
2017-09-02T09:15:05.874Z,1014.13
2017-09-02T09:16:05.884Z,1014.14
2017-09-02T09:17:05.865Z,1014.17
2017-09-02T09:18:05.868Z,1014.27
2017-09-02T09:19:05.858Z,1014.22
2017-09-02T09:20:05.853Z,1014.21
2017-09-02T09:21:05.865Z,1014.22
2017-09-02T09:22:05.847Z,1014.26
2017-09-02T09:23:05.838Z,1014.15
2017-09-02T09:24:05.840Z,1014.21
2017-09-02T09:25:05.827Z,1014.21
2017-09-02T09:26:05.827Z,1014.2
2017-09-02T09:27:05.817Z,1014.08
2017-09-02T09:28:05.819Z,1014.11
2017-09-02T09:29:05.807Z,1014.07
2017-09-02T09:30:05.810Z,1014.06
2017-09-02T09:31:05.807Z,1014.12
2017-09-02T09:32:05.798Z,1014.18
2017-09-02T09:33:05.796Z,1014.19
2017-09-02T09:34:05.790Z,1014.17
2017-09-02T09:35:05.791Z,1014.11
2017-09-02T09:36:05.778Z,1014.17
2017-09-02T09:37:05.777Z,1014.13
2017-09-02T09:38:05.769Z,1014.14
2017-09-02T09:39:05.770Z,1014.13
2017-09-02T09:40:05.768Z,1014.12
2017-09-02T09:41:05.764Z,1014.08
2017-09-02T09:42:05.758Z,1014.11
2017-09-02T09:43:05.756Z,1014.1
2017-09-02T09:44:05.749Z,1014.06
2017-09-02T09:45:05.749Z,1014.05
2017-09-02T09:46:05.748Z,1014.06
2017-09-02T09:47:05.743Z,1014.08
2017-09-02T09:48:05.746Z,1014.04
2017-09-02T09:49:05.738Z,1014.08
2017-09-02T09:50:05.736Z,1014.08
2017-09-02T09:51:05.734Z,1014.09
2017-09-02T09:52:05.736Z,1014.11
2017-09-02T09:53:05.727Z,1014.09
2017-09-02T09:54:05.726Z,1014.02
2017-09-02T09:55:05.729Z,1014.08
2017-09-02T09:56:05.722Z,1014.02
2017-09-02T09:57:05.715Z,1014.02
2017-09-02T09:58:05.719Z,1014.06
2017-09-02T09:59:05.716Z,1014.03
2017-09-02T10:00:05.719Z,1014
2017-09-02T10:01:05.719Z,1013.98
2017-09-02T10:02:05.699Z,1014
2017-09-02T10:03:05.695Z,1013.99
2017-09-02T10:04:05.688Z,1013.97
2017-09-02T10:05:05.689Z,1013.94
2017-09-02T10:06:05.677Z,1013.93
2017-09-02T10:07:05.669Z,1013.93
2017-09-02T10:08:05.669Z,1013.93
2017-09-02T10:09:05.656Z,1013.94
2017-09-02T10:10:05.654Z,1013.94
2017-09-02T10:11:05.643Z,1013.91
2017-09-02T10:12:05.641Z,1013.92
2017-09-02T10:13:05.631Z,1013.92
2017-09-02T10:14:05.622Z,1013.95
2017-09-02T10:15:05.618Z,1013.95
2017-09-02T10:16:05.605Z,1013.88
2017-09-02T10:17:05.599Z,1013.93
2017-09-02T10:18:05.600Z,1013.92
2017-09-02T10:19:05.584Z,1013.87
2017-09-02T10:20:05.576Z,1013.87
2017-09-02T10:21:05.575Z,1013.88
2017-09-02T10:22:05.565Z,1013.84
2017-09-02T10:23:05.554Z,1013.83
2017-09-02T10:24:05.557Z,1013.82
2017-09-02T10:25:05.548Z,1013.78
2017-09-02T10:26:05.538Z,1013.78
2017-09-02T10:27:05.531Z,1013.74
2017-09-02T10:28:05.517Z,1013.73
2017-09-02T10:29:05.508Z,1013.76
2017-09-02T10:30:05.502Z,1013.77
2017-09-02T10:31:05.494Z,1013.76
2017-09-02T10:32:05.485Z,1013.79
2017-09-02T10:33:05.478Z,1013.75
2017-09-02T10:34:05.476Z,1013.77
2017-09-02T10:35:05.463Z,1013.8
2017-09-02T10:36:05.454Z,1013.79
2017-09-02T10:37:05.446Z,1013.79
2017-09-02T10:38:05.435Z,1013.82
2017-09-02T10:39:05.425Z,1013.78
2017-09-02T10:40:05.423Z,1013.77
2017-09-02T10:41:05.418Z,1013.73
2017-09-02T10:42:05.405Z,1013.74
2017-09-02T10:43:05.397Z,1013.74
2017-09-02T10:44:05.387Z,1013.77
2017-09-02T10:45:05.388Z,1013.76
2017-09-02T10:46:05.369Z,1013.73
2017-09-02T10:47:05.360Z,1013.74
2017-09-02T10:48:05.353Z,1013.74
2017-09-02T10:49:05.349Z,1013.69
2017-09-02T10:50:05.336Z,1013.64
2017-09-02T10:51:05.357Z,1013.67
2017-09-02T10:52:05.324Z,1013.62
2017-09-02T10:53:05.363Z,1013.58
2017-09-02T10:54:05.323Z,1013.54
2017-09-02T10:55:05.292Z,1013.56
2017-09-02T10:56:05.288Z,1013.51
2017-09-02T10:57:05.281Z,1013.5
2017-09-02T10:58:05.270Z,1013.5
2017-09-02T10:59:05.262Z,1013.51
2017-09-02T11:00:05.256Z,1013.53
2017-09-02T11:01:05.258Z,1013.52
2017-09-02T11:02:05.239Z,1013.5
2017-09-02T11:03:05.231Z,1013.48
2017-09-02T11:04:05.227Z,1013.48
2017-09-02T11:05:05.219Z,1013.53
2017-09-02T11:06:05.219Z,1013.55
2017-09-02T11:07:05.203Z,1013.56
2017-09-02T11:08:05.195Z,1013.51
2017-09-02T11:09:05.186Z,1013.49
2017-09-02T11:10:05.177Z,1013.5
2017-09-02T11:11:05.173Z,1013.52
2017-09-02T11:12:05.163Z,1013.49
2017-09-02T11:13:05.155Z,1013.49
2017-09-02T11:14:05.147Z,1013.45
2017-09-02T11:15:05.135Z,1013.42
2017-09-02T11:16:05.124Z,1013.44
2017-09-02T11:17:05.118Z,1013.43
2017-09-02T11:18:05.106Z,1013.41
2017-09-02T11:19:05.100Z,1013.38
2017-09-02T11:20:05.089Z,1013.39
2017-09-02T11:21:05.078Z,1013.39
2017-09-02T11:22:05.069Z,1013.43
2017-09-02T11:23:05.068Z,1013.4
2017-09-02T11:24:05.050Z,1013.36
2017-09-02T11:25:05.038Z,1013.4
2017-09-02T11:26:05.039Z,1013.38
2017-09-02T11:27:05.024Z,1013.37
2017-09-02T11:28:05.016Z,1013.4
2017-09-02T11:29:05.007Z,1013.39
2017-09-02T11:30:04.997Z,1013.42
2017-09-02T11:31:04.989Z,1013.41
2017-09-02T11:32:05.072Z,1013.38
2017-09-02T11:33:04.977Z,1013.39
2017-09-02T11:34:04.969Z,1013.41
2017-09-02T11:35:04.947Z,1013.41
2017-09-02T11:36:04.937Z,1013.38
2017-09-02T11:37:04.939Z,1013.4
2017-09-02T11:38:04.923Z,1013.39
2017-09-02T11:39:04.921Z,1013.4
2017-09-02T11:40:04.910Z,1013.39
2017-09-02T11:41:04.899Z,1013.39
2017-09-02T11:42:04.892Z,1013.35
2017-09-02T11:43:04.879Z,1013.35
2017-09-02T11:44:04.867Z,1013.37
2017-09-02T11:45:04.857Z,1013.32
2017-09-02T11:46:04.848Z,1013.31
2017-09-02T11:47:04.846Z,1013.34
2017-09-02T11:48:04.833Z,1013.31
2017-09-02T11:49:04.829Z,1013.35
2017-09-02T11:50:04.822Z,1013.35
2017-09-02T11:51:04.820Z,1013.33
2017-09-02T11:52:04.810Z,1013.37
2017-09-02T11:53:04.792Z,1013.39
2017-09-02T11:54:04.787Z,1013.38
2017-09-02T11:55:04.778Z,1013.33
2017-09-02T11:56:04.770Z,1013.32
2017-09-02T11:57:04.763Z,1013.29
2017-09-02T11:58:04.755Z,1013.3
2017-09-02T11:59:04.750Z,1013.28
2017-09-02T12:00:04.741Z,1013.27
2017-09-02T12:01:04.730Z,1013.24
2017-09-02T12:02:04.724Z,1013.25
2017-09-02T12:03:04.720Z,1013.26
2017-09-02T12:04:04.708Z,1013.21
2017-09-02T12:05:04.702Z,1013.24
2017-09-02T12:06:04.702Z,1013.26
2017-09-02T12:07:04.687Z,1013.19
2017-09-02T12:08:04.678Z,1013.21
2017-09-02T12:09:04.668Z,1013.18